sensor_id;sensor_type;location;lat;lon;timestamp;temperature;humidity
5842;DHT22;2947;52.276;9.946;2023-04-25T00:01:24;7.90;99.90
5842;DHT22;2947;52.276;9.946;2023-04-25T00:03:49;8.00;99.90
5842;DHT22;2947;52.276;9.946;2023-04-25T00:06:16;7.90;99.90
5842;DHT22;2947;52.276;9.946;2023-04-25T00:08:43;7.90;99.90
5842;DHT22;2947;52.276;9.946;2023-04-25T00:11:08;7.90;99.90
5842;DHT22;2947;52.276;9.946;2023-04-25T00:13:34;7.90;99.90
5842;DHT22;2947;52.276;9.946;2023-04-25T00:16:00;7.90;99.90
5842;DHT22;2947;52.276;9.946;2023-04-25T00:18:25;7.90;99.90
5842;DHT22;2947;52.276;9.946;2023-04-25T00:20:54;7.90;99.90
5842;DHT22;2947;52.276;9.946;2023-04-25T00:23:20;7.90;99.90
5842;DHT22;2947;52.276;9.946;2023-04-25T00:25:47;8.00;99.90
5842;DHT22;2947;52.276;9.946;2023-04-25T00:28:13;7.90;99.90
5842;DHT22;2947;52.276;9.946;2023-04-25T00:30:40;7.90;99.90
5842;DHT22;2947;52.276;9.946;2023-04-25T00:33:08;7.90;99.90
5842;DHT22;2947;52.276;9.946;2023-04-25T00:35:35;7.90;99.90
5842;DHT22;2947;52.276;9.946;2023-04-25T00:38:01;7.90;99.90
5842;DHT22;2947;52.276;9.946;2023-04-25T00:40:27;7.90;99.90
5842;DHT22;2947;52.276;9.946;2023-04-25T00:42:53;7.80;99.90
5842;DHT22;2947;52.276;9.946;2023-04-25T00:45:19;7.80;99.90
5842;DHT22;2947;52.276;9.946;2023-04-25T00:47:46;7.80;99.90
5842;DHT22;2947;52.276;9.946;2023-04-25T00:50:13;7.80;99.90
5842;DHT22;2947;52.276;9.946;2023-04-25T00:52:44;7.80;99.90
5842;DHT22;2947;52.276;9.946;2023-04-25T00:55:11;7.80;99.90
5842;DHT22;2947;52.276;9.946;2023-04-25T00:57:38;7.80;99.90
5842;DHT22;2947;52.276;9.946;2023-04-25T01:00:05;7.80;99.90
5842;DHT22;2947;52.276;9.946;2023-04-25T01:02:33;7.70;99.90
5842;DHT22;2947;52.276;9.946;2023-04-25T01:04:59;7.70;99.90
5842;DHT22;2947;52.276;9.946;2023-04-25T01:07:25;7.70;99.90
5842;DHT22;2947;52.276;9.946;2023-04-25T01:09:54;7.70;99.90
5842;DHT22;2947;52.276;9.946;2023-04-25T01:12:20;7.70;99.90
5842;DHT22;2947;52.276;9.946;2023-04-25T01:14:46;7.60;99.90
5842;DHT22;2947;52.276;9.946;2023-04-25T01:17:12;7.60;99.90
5842;DHT22;2947;52.276;9.946;2023-04-25T01:19:38;7.60;99.90
5842;DHT22;2947;52.276;9.946;2023-04-25T01:22:05;7.60;99.90
5842;DHT22;2947;52.276;9.946;2023-04-25T01:24:33;7.60;99.90
5842;DHT22;2947;52.276;9.946;2023-04-25T01:27:00;7.60;99.90
5842;DHT22;2947;52.276;9.946;2023-04-25T01:29:28;7.50;99.90
5842;DHT22;2947;52.276;9.946;2023-04-25T01:31:54;7.50;99.90
5842;DHT22;2947;52.276;9.946;2023-04-25T01:34:24;7.50;99.90
5842;DHT22;2947;52.276;9.946;2023-04-25T01:36:50;7.50;1.00
5842;DHT22;2947;52.276;9.946;2023-04-25T01:39:17;7.50;1.00
5842;DHT22;2947;52.276;9.946;2023-04-25T01:41:44;7.50;1.00
5842;DHT22;2947;52.276;9.946;2023-04-25T01:44:14;7.40;1.00
5842;DHT22;2947;52.276;9.946;2023-04-25T01:46:40;7.40;1.00
5842;DHT22;2947;52.276;9.946;2023-04-25T01:49:06;7.40;1.00
5842;DHT22;2947;52.276;9.946;2023-04-25T01:51:32;7.40;1.00
5842;DHT22;2947;52.276;9.946;2023-04-25T01:53:58;7.40;1.00
5842;DHT22;2947;52.276;9.946;2023-04-25T01:56:24;7.40;1.00
5842;DHT22;2947;52.276;9.946;2023-04-25T01:58:50;7.40;1.00
5842;DHT22;2947;52.276;9.946;2023-04-25T02:01:16;7.40;1.00
5842;DHT22;2947;52.276;9.946;2023-04-25T02:03:43;7.40;1.00
5842;DHT22;2947;52.276;9.946;2023-04-25T02:06:09;7.30;1.00
5842;DHT22;2947;52.276;9.946;2023-04-25T02:08:34;7.30;1.00
5842;DHT22;2947;52.276;9.946;2023-04-25T02:11:02;7.30;1.00
5842;DHT22;2947;52.276;9.946;2023-04-25T02:13:28;7.30;1.00
5842;DHT22;2947;52.276;9.946;2023-04-25T02:15:54;7.30;1.00
5842;DHT22;2947;52.276;9.946;2023-04-25T02:18:20;7.30;1.00
5842;DHT22;2947;52.276;9.946;2023-04-25T02:20:46;7.30;1.00
5842;DHT22;2947;52.276;9.946;2023-04-25T02:23:12;7.30;1.00
5842;DHT22;2947;52.276;9.946;2023-04-25T02:25:37;7.30;1.00
5842;DHT22;2947;52.276;9.946;2023-04-25T02:28:03;7.30;1.00
5842;DHT22;2947;52.276;9.946;2023-04-25T02:30:29;7.30;1.00
5842;DHT22;2947;52.276;9.946;2023-04-25T02:32:55;7.30;1.00
5842;DHT22;2947;52.276;9.946;2023-04-25T02:35:21;7.30;1.00
5842;DHT22;2947;52.276;9.946;2023-04-25T02:37:47;7.30;1.00
5842;DHT22;2947;52.276;9.946;2023-04-25T02:40:13;7.30;1.00
5842;DHT22;2947;52.276;9.946;2023-04-25T02:42:39;7.30;1.00
5842;DHT22;2947;52.276;9.946;2023-04-25T02:45:05;7.30;1.00
5842;DHT22;2947;52.276;9.946;2023-04-25T02:47:31;7.30;1.00
5842;DHT22;2947;52.276;9.946;2023-04-25T02:49:56;7.30;5.80
5842;DHT22;2947;52.276;9.946;2023-04-25T02:52:22;7.30;14.20
5842;DHT22;2947;52.276;9.946;2023-04-25T02:54:48;7.30;22.00
5842;DHT22;2947;52.276;9.946;2023-04-25T02:57:13;7.30;32.40
5842;DHT22;2947;52.276;9.946;2023-04-25T02:59:40;7.20;37.30
5842;DHT22;2947;52.276;9.946;2023-04-25T03:02:05;7.20;19.60
5842;DHT22;2947;52.276;9.946;2023-04-25T03:04:31;7.20;2.30
5842;DHT22;2947;52.276;9.946;2023-04-25T03:06:59;7.10;1.00
5842;DHT22;2947;52.276;9.946;2023-04-25T03:09:25;7.10;1.00
5842;DHT22;2947;52.276;9.946;2023-04-25T03:11:50;7.20;1.00
5842;DHT22;2947;52.276;9.946;2023-04-25T03:14:16;7.00;1.00
5842;DHT22;2947;52.276;9.946;2023-04-25T03:16:42;7.00;1.00
5842;DHT22;2947;52.276;9.946;2023-04-25T03:19:07;7.00;1.00
5842;DHT22;2947;52.276;9.946;2023-04-25T03:21:34;6.90;1.00
5842;DHT22;2947;52.276;9.946;2023-04-25T03:24:02;7.50;1.00
5842;DHT22;2947;52.276;9.946;2023-04-25T03:26:29;7.70;1.00
5842;DHT22;2947;52.276;9.946;2023-04-25T03:28:54;7.00;1.00
5842;DHT22;2947;52.276;9.946;2023-04-25T03:31:20;7.00;1.00
5842;DHT22;2947;52.276;9.946;2023-04-25T03:33:47;7.00;1.00
5842;DHT22;2947;52.276;9.946;2023-04-25T03:36:12;7.00;1.00
5842;DHT22;2947;52.276;9.946;2023-04-25T03:38:38;7.10;1.00
5842;DHT22;2947;52.276;9.946;2023-04-25T03:41:04;7.10;1.00
5842;DHT22;2947;52.276;9.946;2023-04-25T03:43:29;7.10;1.00
5842;DHT22;2947;52.276;9.946;2023-04-25T03:45:55;7.10;1.00
5842;DHT22;2947;52.276;9.946;2023-04-25T03:48:21;7.20;1.00
5842;DHT22;2947;52.276;9.946;2023-04-25T03:50:47;7.20;1.00
5842;DHT22;2947;52.276;9.946;2023-04-25T03:53:13;7.20;1.00
5842;DHT22;2947;52.276;9.946;2023-04-25T03:55:39;7.10;1.00
5842;DHT22;2947;52.276;9.946;2023-04-25T03:58:05;7.10;1.00
5842;DHT22;2947;52.276;9.946;2023-04-25T04:00:31;7.10;1.00
5842;DHT22;2947;52.276;9.946;2023-04-25T04:02:57;7.10;1.00
5842;DHT22;2947;52.276;9.946;2023-04-25T04:05:22;7.20;1.00
5842;DHT22;2947;52.276;9.946;2023-04-25T04:07:48;7.10;1.00
5842;DHT22;2947;52.276;9.946;2023-04-25T04:10:14;7.10;1.00
5842;DHT22;2947;52.276;9.946;2023-04-25T04:12:40;7.10;1.00
5842;DHT22;2947;52.276;9.946;2023-04-25T04:15:06;7.10;1.00
5842;DHT22;2947;52.276;9.946;2023-04-25T04:17:32;7.10;1.00
5842;DHT22;2947;52.276;9.946;2023-04-25T04:19:58;7.10;1.00
5842;DHT22;2947;52.276;9.946;2023-04-25T04:22:24;7.10;1.00
5842;DHT22;2947;52.276;9.946;2023-04-25T04:24:50;7.10;1.00
5842;DHT22;2947;52.276;9.946;2023-04-25T04:27:19;7.10;1.00
5842;DHT22;2947;52.276;9.946;2023-04-25T04:29:46;7.10;1.00
5842;DHT22;2947;52.276;9.946;2023-04-25T04:32:12;7.00;1.00
5842;DHT22;2947;52.276;9.946;2023-04-25T04:34:38;7.00;1.00
5842;DHT22;2947;52.276;9.946;2023-04-25T04:37:05;6.90;1.00
5842;DHT22;2947;52.276;9.946;2023-04-25T04:39:35;7.00;1.00
5842;DHT22;2947;52.276;9.946;2023-04-25T04:42:01;7.00;1.00
5842;DHT22;2947;52.276;9.946;2023-04-25T04:44:30;7.00;1.00
5842;DHT22;2947;52.276;9.946;2023-04-25T04:46:59;6.90;1.00
5842;DHT22;2947;52.276;9.946;2023-04-25T04:49:25;7.00;1.00
5842;DHT22;2947;52.276;9.946;2023-04-25T04:51:51;7.00;1.00
5842;DHT22;2947;52.276;9.946;2023-04-25T04:54:17;7.00;1.00
5842;DHT22;2947;52.276;9.946;2023-04-25T04:56:43;7.00;1.00
5842;DHT22;2947;52.276;9.946;2023-04-25T04:59:09;7.00;1.00
5842;DHT22;2947;52.276;9.946;2023-04-25T05:01:35;7.00;1.00
5842;DHT22;2947;52.276;9.946;2023-04-25T05:04:01;7.00;1.00
5842;DHT22;2947;52.276;9.946;2023-04-25T05:06:28;7.10;1.00
5842;DHT22;2947;52.276;9.946;2023-04-25T05:08:55;7.10;1.00
5842;DHT22;2947;52.276;9.946;2023-04-25T05:11:22;7.10;1.00
5842;DHT22;2947;52.276;9.946;2023-04-25T05:13:51;7.20;1.00
5842;DHT22;2947;52.276;9.946;2023-04-25T05:16:17;7.20;1.00
5842;DHT22;2947;52.276;9.946;2023-04-25T05:18:43;7.20;1.00
5842;DHT22;2947;52.276;9.946;2023-04-25T05:21:09;7.20;1.00
5842;DHT22;2947;52.276;9.946;2023-04-25T05:23:34;7.10;1.00
5842;DHT22;2947;52.276;9.946;2023-04-25T05:26:00;7.20;1.00
5842;DHT22;2947;52.276;9.946;2023-04-25T05:28:26;7.20;1.00
5842;DHT22;2947;52.276;9.946;2023-04-25T05:30:52;7.20;1.00
5842;DHT22;2947;52.276;9.946;2023-04-25T05:33:18;7.20;99.90
5842;DHT22;2947;52.276;9.946;2023-04-25T05:35:44;7.20;99.90
5842;DHT22;2947;52.276;9.946;2023-04-25T05:38:11;7.20;99.90
5842;DHT22;2947;52.276;9.946;2023-04-25T05:40:37;7.30;99.90
5842;DHT22;2947;52.276;9.946;2023-04-25T05:43:02;7.20;99.90
5842;DHT22;2947;52.276;9.946;2023-04-25T05:45:28;7.30;99.90
5842;DHT22;2947;52.276;9.946;2023-04-25T05:47:53;7.30;99.90
5842;DHT22;2947;52.276;9.946;2023-04-25T05:50:19;7.40;99.90
5842;DHT22;2947;52.276;9.946;2023-04-25T05:52:45;7.30;99.90
5842;DHT22;2947;52.276;9.946;2023-04-25T05:55:11;7.40;99.90
5842;DHT22;2947;52.276;9.946;2023-04-25T05:57:36;7.40;99.90
5842;DHT22;2947;52.276;9.946;2023-04-25T06:00:03;7.40;1.00
5842;DHT22;2947;52.276;9.946;2023-04-25T06:02:34;7.40;1.00
5842;DHT22;2947;52.276;9.946;2023-04-25T06:05:00;7.50;99.90
5842;DHT22;2947;52.276;9.946;2023-04-25T06:07:28;7.50;99.90
5842;DHT22;2947;52.276;9.946;2023-04-25T06:09:55;7.40;1.00
5842;DHT22;2947;52.276;9.946;2023-04-25T06:12:21;7.60;18.80
5842;DHT22;2947;52.276;9.946;2023-04-25T06:14:46;7.50;1.00
5842;DHT22;2947;52.276;9.946;2023-04-25T06:17:12;7.60;1.00
5842;DHT22;2947;52.276;9.946;2023-04-25T06:19:38;7.60;1.00
5842;DHT22;2947;52.276;9.946;2023-04-25T06:22:04;7.60;1.00
5842;DHT22;2947;52.276;9.946;2023-04-25T06:24:30;7.70;1.00
5842;DHT22;2947;52.276;9.946;2023-04-25T06:26:56;7.60;1.00
5842;DHT22;2947;52.276;9.946;2023-04-25T06:29:21;7.70;99.90
5842;DHT22;2947;52.276;9.946;2023-04-25T06:31:47;7.80;1.00
5842;DHT22;2947;52.276;9.946;2023-04-25T06:34:13;7.80;99.90
5842;DHT22;2947;52.276;9.946;2023-04-25T06:36:38;7.90;99.90
5842;DHT22;2947;52.276;9.946;2023-04-25T06:39:04;7.90;99.90
5842;DHT22;2947;52.276;9.946;2023-04-25T06:41:30;7.90;99.90
5842;DHT22;2947;52.276;9.946;2023-04-25T06:43:55;8.10;1.00
5842;DHT22;2947;52.276;9.946;2023-04-25T06:46:21;8.10;99.90
5842;DHT22;2947;52.276;9.946;2023-04-25T06:48:47;8.20;99.90
5842;DHT22;2947;52.276;9.946;2023-04-25T06:51:12;8.30;99.90
5842;DHT22;2947;52.276;9.946;2023-04-25T06:53:39;8.30;29.30
5842;DHT22;2947;52.276;9.946;2023-04-25T06:56:05;8.40;1.00
5842;DHT22;2947;52.276;9.946;2023-04-25T06:58:31;8.40;1.00
5842;DHT22;2947;52.276;9.946;2023-04-25T07:00:57;8.40;1.00
5842;DHT22;2947;52.276;9.946;2023-04-25T07:03:23;8.50;99.90
5842;DHT22;2947;52.276;9.946;2023-04-25T07:05:49;8.70;99.90
5842;DHT22;2947;52.276;9.946;2023-04-25T07:08:16;8.80;99.90
5842;DHT22;2947;52.276;9.946;2023-04-25T07:10:42;8.70;1.00
5842;DHT22;2947;52.276;9.946;2023-04-25T07:13:08;8.60;1.00
5842;DHT22;2947;52.276;9.946;2023-04-25T07:15:33;8.60;1.00
5842;DHT22;2947;52.276;9.946;2023-04-25T07:17:59;8.70;1.00
5842;DHT22;2947;52.276;9.946;2023-04-25T07:20:25;8.80;1.00
5842;DHT22;2947;52.276;9.946;2023-04-25T07:22:52;8.80;1.00
5842;DHT22;2947;52.276;9.946;2023-04-25T07:25:19;8.70;1.00
5842;DHT22;2947;52.276;9.946;2023-04-25T07:27:45;8.80;1.00
5842;DHT22;2947;52.276;9.946;2023-04-25T07:30:11;8.80;1.00
5842;DHT22;2947;52.276;9.946;2023-04-25T07:32:38;8.60;1.00
5842;DHT22;2947;52.276;9.946;2023-04-25T07:35:04;8.70;1.00
5842;DHT22;2947;52.276;9.946;2023-04-25T07:37:30;8.70;1.00
5842;DHT22;2947;52.276;9.946;2023-04-25T07:39:56;8.70;1.00
5842;DHT22;2947;52.276;9.946;2023-04-25T07:42:21;8.80;1.00
5842;DHT22;2947;52.276;9.946;2023-04-25T07:44:47;8.90;1.00
5842;DHT22;2947;52.276;9.946;2023-04-25T07:47:13;8.90;1.00
5842;DHT22;2947;52.276;9.946;2023-04-25T07:49:39;8.90;1.00
5842;DHT22;2947;52.276;9.946;2023-04-25T07:52:05;8.90;1.00
5842;DHT22;2947;52.276;9.946;2023-04-25T07:54:31;8.80;1.00
5842;DHT22;2947;52.276;9.946;2023-04-25T07:56:58;8.70;1.00
5842;DHT22;2947;52.276;9.946;2023-04-25T07:59:24;8.50;1.00
5842;DHT22;2947;52.276;9.946;2023-04-25T08:01:50;8.60;1.00
5842;DHT22;2947;52.276;9.946;2023-04-25T08:04:16;8.60;99.90
5842;DHT22;2947;52.276;9.946;2023-04-25T08:06:42;8.70;99.90
5842;DHT22;2947;52.276;9.946;2023-04-25T08:09:08;8.60;99.90
5842;DHT22;2947;52.276;9.946;2023-04-25T08:11:35;8.50;99.90
5842;DHT22;2947;52.276;9.946;2023-04-25T08:14:00;8.40;99.90
5842;DHT22;2947;52.276;9.946;2023-04-25T08:16:27;8.50;99.90
5842;DHT22;2947;52.276;9.946;2023-04-25T08:18:53;8.50;99.90
5842;DHT22;2947;52.276;9.946;2023-04-25T08:21:18;8.60;99.90
5842;DHT22;2947;52.276;9.946;2023-04-25T08:23:44;8.50;99.90
5842;DHT22;2947;52.276;9.946;2023-04-25T08:26:10;8.60;99.90
5842;DHT22;2947;52.276;9.946;2023-04-25T08:28:36;8.70;99.90
5842;DHT22;2947;52.276;9.946;2023-04-25T08:31:02;8.70;99.90
5842;DHT22;2947;52.276;9.946;2023-04-25T08:33:27;8.70;99.90
5842;DHT22;2947;52.276;9.946;2023-04-25T08:35:53;8.90;99.90
5842;DHT22;2947;52.276;9.946;2023-04-25T08:38:19;8.90;99.90
5842;DHT22;2947;52.276;9.946;2023-04-25T08:40:49;8.90;99.90
5842;DHT22;2947;52.276;9.946;2023-04-25T08:43:20;9.20;99.90
5842;DHT22;2947;52.276;9.946;2023-04-25T08:45:46;9.30;99.90
5842;DHT22;2947;52.276;9.946;2023-04-25T08:48:13;9.40;99.90
5842;DHT22;2947;52.276;9.946;2023-04-25T08:50:52;9.50;99.90
5842;DHT22;2947;52.276;9.946;2023-04-25T08:53:24;9.60;99.90
5842;DHT22;2947;52.276;9.946;2023-04-25T08:55:53;9.70;99.90
5842;DHT22;2947;52.276;9.946;2023-04-25T08:58:20;9.70;99.90
5842;DHT22;2947;52.276;9.946;2023-04-25T09:00:47;9.70;99.90
5842;DHT22;2947;52.276;9.946;2023-04-25T09:03:13;9.80;99.90
5842;DHT22;2947;52.276;9.946;2023-04-25T09:05:40;10.00;99.90
5842;DHT22;2947;52.276;9.946;2023-04-25T09:08:07;10.20;99.90
5842;DHT22;2947;52.276;9.946;2023-04-25T09:10:33;10.20;99.90
5842;DHT22;2947;52.276;9.946;2023-04-25T09:13:13;10.10;99.90
5842;DHT22;2947;52.276;9.946;2023-04-25T09:15:51;10.10;99.90
5842;DHT22;2947;52.276;9.946;2023-04-25T09:18:31;10.10;99.90
5842;DHT22;2947;52.276;9.946;2023-04-25T09:21:08;10.10;99.90
5842;DHT22;2947;52.276;9.946;2023-04-25T09:23:44;9.90;99.90
5842;DHT22;2947;52.276;9.946;2023-04-25T09:26:15;9.90;99.90
5842;DHT22;2947;52.276;9.946;2023-04-25T09:28:42;9.90;99.90
5842;DHT22;2947;52.276;9.946;2023-04-25T09:31:10;9.90;99.90
5842;DHT22;2947;52.276;9.946;2023-04-25T09:33:37;9.70;99.90
5842;DHT22;2947;52.276;9.946;2023-04-25T09:36:05;9.70;99.90
5842;DHT22;2947;52.276;9.946;2023-04-25T09:38:46;9.70;99.90
5842;DHT22;2947;52.276;9.946;2023-04-25T09:41:12;9.60;99.90
5842;DHT22;2947;52.276;9.946;2023-04-25T09:43:39;9.60;99.90
5842;DHT22;2947;52.276;9.946;2023-04-25T09:46:09;9.90;99.90
5842;DHT22;2947;52.276;9.946;2023-04-25T09:48:36;10.00;99.90
5842;DHT22;2947;52.276;9.946;2023-04-25T09:51:11;10.10;99.90
5842;DHT22;2947;52.276;9.946;2023-04-25T09:53:40;11.10;99.90
5842;DHT22;2947;52.276;9.946;2023-04-25T09:56:09;10.40;99.90
5842;DHT22;2947;52.276;9.946;2023-04-25T09:58:37;10.60;99.90
5842;DHT22;2947;52.276;9.946;2023-04-25T10:01:05;10.90;99.90
5842;DHT22;2947;52.276;9.946;2023-04-25T10:03:34;11.10;99.90
5842;DHT22;2947;52.276;9.946;2023-04-25T10:06:07;11.30;99.90
5842;DHT22;2947;52.276;9.946;2023-04-25T10:08:37;11.50;99.90
5842;DHT22;2947;52.276;9.946;2023-04-25T10:11:08;11.60;99.90
5842;DHT22;2947;52.276;9.946;2023-04-25T10:13:35;11.60;99.90
5842;DHT22;2947;52.276;9.946;2023-04-25T10:16:03;11.60;99.90
5842;DHT22;2947;52.276;9.946;2023-04-25T10:18:30;11.60;99.90
5842;DHT22;2947;52.276;9.946;2023-04-25T10:20:59;11.70;99.90
5842;DHT22;2947;52.276;9.946;2023-04-25T10:23:27;11.80;99.90
5842;DHT22;2947;52.276;9.946;2023-04-25T10:25:55;11.70;99.90
5842;DHT22;2947;52.276;9.946;2023-04-25T10:28:21;11.50;99.90
5842;DHT22;2947;52.276;9.946;2023-04-25T10:31:03;11.50;99.90
5842;DHT22;2947;52.276;9.946;2023-04-25T10:33:34;11.30;99.90
5842;DHT22;2947;52.276;9.946;2023-04-25T10:36:34;11.60;99.90
5842;DHT22;2947;52.276;9.946;2023-04-25T10:39:04;11.50;99.90
5842;DHT22;2947;52.276;9.946;2023-04-25T10:41:51;11.50;99.90
5842;DHT22;2947;52.276;9.946;2023-04-25T10:44:30;11.40;99.90
5842;DHT22;2947;52.276;9.946;2023-04-25T10:46:58;11.40;99.90
5842;DHT22;2947;52.276;9.946;2023-04-25T10:49:43;11.30;99.90
5842;DHT22;2947;52.276;9.946;2023-04-25T10:54:56;11.00;99.90
5842;DHT22;2947;52.276;9.946;2023-04-25T10:57:34;10.80;99.90
5842;DHT22;2947;52.276;9.946;2023-04-25T11:00:20;10.80;99.90
5842;DHT22;2947;52.276;9.946;2023-04-25T11:02:52;10.80;99.90
5842;DHT22;2947;52.276;9.946;2023-04-25T11:08:10;10.50;99.90
5842;DHT22;2947;52.276;9.946;2023-04-25T11:10:36;10.60;99.90
5842;DHT22;2947;52.276;9.946;2023-04-25T11:13:03;10.70;99.90
5842;DHT22;2947;52.276;9.946;2023-04-25T11:15:28;10.80;99.90
5842;DHT22;2947;52.276;9.946;2023-04-25T11:17:55;10.70;99.90
5842;DHT22;2947;52.276;9.946;2023-04-25T11:20:22;10.80;99.90
5842;DHT22;2947;52.276;9.946;2023-04-25T11:22:51;10.90;99.90
5842;DHT22;2947;52.276;9.946;2023-04-25T11:25:16;10.90;99.90
5842;DHT22;2947;52.276;9.946;2023-04-25T11:27:52;10.90;99.90
5842;DHT22;2947;52.276;9.946;2023-04-25T11:30:18;10.90;99.90
5842;DHT22;2947;52.276;9.946;2023-04-25T11:32:45;10.90;99.90
5842;DHT22;2947;52.276;9.946;2023-04-25T11:35:12;11.00;99.90
5842;DHT22;2947;52.276;9.946;2023-04-25T11:37:42;11.00;99.90
5842;DHT22;2947;52.276;9.946;2023-04-25T11:40:09;11.00;99.90
5842;DHT22;2947;52.276;9.946;2023-04-25T11:42:37;11.20;99.90
5842;DHT22;2947;52.276;9.946;2023-04-25T11:45:05;11.30;99.90
5842;DHT22;2947;52.276;9.946;2023-04-25T11:47:32;11.40;99.90
5842;DHT22;2947;52.276;9.946;2023-04-25T11:50:02;11.60;99.90
5842;DHT22;2947;52.276;9.946;2023-04-25T11:52:39;11.70;99.90
5842;DHT22;2947;52.276;9.946;2023-04-25T11:55:12;11.60;99.90
5842;DHT22;2947;52.276;9.946;2023-04-25T11:57:41;11.60;99.90
5842;DHT22;2947;52.276;9.946;2023-04-25T12:00:12;11.50;99.90
5842;DHT22;2947;52.276;9.946;2023-04-25T12:02:41;11.40;99.90
5842;DHT22;2947;52.276;9.946;2023-04-25T12:05:12;11.50;99.90
5842;DHT22;2947;52.276;9.946;2023-04-25T12:07:39;11.40;99.90
5842;DHT22;2947;52.276;9.946;2023-04-25T12:10:11;11.20;99.90
5842;DHT22;2947;52.276;9.946;2023-04-25T12:12:41;11.10;99.90
5842;DHT22;2947;52.276;9.946;2023-04-25T12:15:24;10.70;99.90
5842;DHT22;2947;52.276;9.946;2023-04-25T12:17:52;10.50;99.90
5842;DHT22;2947;52.276;9.946;2023-04-25T12:20:23;10.30;99.90
5842;DHT22;2947;52.276;9.946;2023-04-25T12:22:52;10.30;99.90
5842;DHT22;2947;52.276;9.946;2023-04-25T12:25:38;10.40;99.90
5842;DHT22;2947;52.276;9.946;2023-04-25T12:28:21;10.40;99.90
5842;DHT22;2947;52.276;9.946;2023-04-25T12:33:30;10.40;99.90
5842;DHT22;2947;52.276;9.946;2023-04-25T12:35:57;10.40;99.90
5842;DHT22;2947;52.276;9.946;2023-04-25T12:38:28;10.50;99.90
5842;DHT22;2947;52.276;9.946;2023-04-25T12:40:56;10.50;99.90
5842;DHT22;2947;52.276;9.946;2023-04-25T12:43:23;10.70;99.90
5842;DHT22;2947;52.276;9.946;2023-04-25T12:45:50;10.90;99.90
5842;DHT22;2947;52.276;9.946;2023-04-25T12:48:20;10.90;99.90
5842;DHT22;2947;52.276;9.946;2023-04-25T12:50:47;11.10;99.90
5842;DHT22;2947;52.276;9.946;2023-04-25T12:53:21;11.20;99.90
5842;DHT22;2947;52.276;9.946;2023-04-25T12:55:48;11.40;99.90
5842;DHT22;2947;52.276;9.946;2023-04-25T12:58:15;11.40;99.90
5842;DHT22;2947;52.276;9.946;2023-04-25T13:00:41;11.50;99.90
5842;DHT22;2947;52.276;9.946;2023-04-25T13:03:08;11.60;99.90
5842;DHT22;2947;52.276;9.946;2023-04-25T13:05:34;11.60;99.90
5842;DHT22;2947;52.276;9.946;2023-04-25T13:08:00;11.40;99.90
5842;DHT22;2947;52.276;9.946;2023-04-25T13:10:26;10.90;99.90
5842;DHT22;2947;52.276;9.946;2023-04-25T13:12:52;10.90;99.90
5842;DHT22;2947;52.276;9.946;2023-04-25T13:15:18;10.80;99.90
5842;DHT22;2947;52.276;9.946;2023-04-25T13:17:43;10.70;99.90
5842;DHT22;2947;52.276;9.946;2023-04-25T13:20:10;10.70;99.90
5842;DHT22;2947;52.276;9.946;2023-04-25T13:22:37;10.60;99.90
5842;DHT22;2947;52.276;9.946;2023-04-25T13:25:05;10.60;99.90
5842;DHT22;2947;52.276;9.946;2023-04-25T13:27:32;10.60;99.90
5842;DHT22;2947;52.276;9.946;2023-04-25T13:30:00;10.50;99.90
5842;DHT22;2947;52.276;9.946;2023-04-25T13:32:26;10.20;97.90
5842;DHT22;2947;52.276;9.946;2023-04-25T13:34:52;10.10;96.00
5842;DHT22;2947;52.276;9.946;2023-04-25T13:37:18;9.90;94.30
5842;DHT22;2947;52.276;9.946;2023-04-25T13:39:44;9.70;96.80
5842;DHT22;2947;52.276;9.946;2023-04-25T13:42:10;9.60;98.40
5842;DHT22;2947;52.276;9.946;2023-04-25T13:44:36;9.60;99.90
5842;DHT22;2947;52.276;9.946;2023-04-25T13:47:02;9.40;99.90
5842;DHT22;2947;52.276;9.946;2023-04-25T13:49:28;9.40;99.90
5842;DHT22;2947;52.276;9.946;2023-04-25T13:51:53;9.40;99.90
5842;DHT22;2947;52.276;9.946;2023-04-25T13:54:19;9.40;99.90
5842;DHT22;2947;52.276;9.946;2023-04-25T13:56:45;9.30;99.90
5842;DHT22;2947;52.276;9.946;2023-04-25T13:59:11;9.40;99.90
5842;DHT22;2947;52.276;9.946;2023-04-25T14:01:36;9.50;99.90
5842;DHT22;2947;52.276;9.946;2023-04-25T14:04:03;9.70;99.90
5842;DHT22;2947;52.276;9.946;2023-04-25T14:06:32;9.70;99.90
5842;DHT22;2947;52.276;9.946;2023-04-25T14:08:58;9.90;99.90
5842;DHT22;2947;52.276;9.946;2023-04-25T14:11:26;9.90;99.90
5842;DHT22;2947;52.276;9.946;2023-04-25T14:13:51;10.00;99.90
5842;DHT22;2947;52.276;9.946;2023-04-25T14:16:17;10.20;99.90
5842;DHT22;2947;52.276;9.946;2023-04-25T14:18:43;10.30;99.90
5842;DHT22;2947;52.276;9.946;2023-04-25T14:21:08;10.20;99.90
5842;DHT22;2947;52.276;9.946;2023-04-25T14:23:35;10.30;99.90
5842;DHT22;2947;52.276;9.946;2023-04-25T14:26:01;9.80;99.90
5842;DHT22;2947;52.276;9.946;2023-04-25T14:28:27;9.10;99.90
5842;DHT22;2947;52.276;9.946;2023-04-25T14:30:53;8.80;99.90
5842;DHT22;2947;52.276;9.946;2023-04-25T14:33:18;8.50;99.90
5842;DHT22;2947;52.276;9.946;2023-04-25T14:35:44;8.40;99.90
5842;DHT22;2947;52.276;9.946;2023-04-25T14:38:10;8.50;1.00
5842;DHT22;2947;52.276;9.946;2023-04-25T14:40:36;8.60;99.90
5842;DHT22;2947;52.276;9.946;2023-04-25T14:43:03;8.70;99.90
5842;DHT22;2947;52.276;9.946;2023-04-25T14:45:28;8.70;99.90
5842;DHT22;2947;52.276;9.946;2023-04-25T14:47:54;8.90;99.90
5842;DHT22;2947;52.276;9.946;2023-04-25T14:50:20;9.10;1.00
5842;DHT22;2947;52.276;9.946;2023-04-25T14:52:46;9.10;99.90
5842;DHT22;2947;52.276;9.946;2023-04-25T14:55:11;9.30;1.00
5842;DHT22;2947;52.276;9.946;2023-04-25T14:57:37;9.40;99.90
5842;DHT22;2947;52.276;9.946;2023-04-25T15:00:05;9.50;99.90
5842;DHT22;2947;52.276;9.946;2023-04-25T15:02:34;9.60;99.90
5842;DHT22;2947;52.276;9.946;2023-04-25T15:05:01;9.60;99.90
5842;DHT22;2947;52.276;9.946;2023-04-25T15:07:27;9.70;99.90
5842;DHT22;2947;52.276;9.946;2023-04-25T15:09:52;9.70;99.90
5842;DHT22;2947;52.276;9.946;2023-04-25T15:12:19;9.70;99.90
5842;DHT22;2947;52.276;9.946;2023-04-25T15:14:45;9.80;99.90
5842;DHT22;2947;52.276;9.946;2023-04-25T15:17:11;9.90;99.90
5842;DHT22;2947;52.276;9.946;2023-04-25T15:19:39;10.00;99.90
5842;DHT22;2947;52.276;9.946;2023-04-25T15:22:05;10.70;99.90
5842;DHT22;2947;52.276;9.946;2023-04-25T15:24:32;9.90;99.90
5842;DHT22;2947;52.276;9.946;2023-04-25T15:26:58;9.80;99.90
5842;DHT22;2947;52.276;9.946;2023-04-25T15:29:24;9.90;99.90
5842;DHT22;2947;52.276;9.946;2023-04-25T15:31:49;9.70;99.90
5842;DHT22;2947;52.276;9.946;2023-04-25T15:34:15;9.60;99.90
5842;DHT22;2947;52.276;9.946;2023-04-25T15:36:41;9.20;99.90
5842;DHT22;2947;52.276;9.946;2023-04-25T15:39:07;8.90;99.90
5842;DHT22;2947;52.276;9.946;2023-04-25T15:41:33;8.60;99.90
5842;DHT22;2947;52.276;9.946;2023-04-25T15:43:59;8.60;99.90
5842;DHT22;2947;52.276;9.946;2023-04-25T15:46:28;8.50;99.90
5842;DHT22;2947;52.276;9.946;2023-04-25T15:48:55;8.60;99.90
5842;DHT22;2947;52.276;9.946;2023-04-25T15:51:21;8.70;99.90
5842;DHT22;2947;52.276;9.946;2023-04-25T15:53:47;8.80;99.90
5842;DHT22;2947;52.276;9.946;2023-04-25T15:56:12;9.00;99.90
5842;DHT22;2947;52.276;9.946;2023-04-25T15:58:38;9.10;99.90
5842;DHT22;2947;52.276;9.946;2023-04-25T16:01:04;9.10;99.90
5842;DHT22;2947;52.276;9.946;2023-04-25T16:03:30;9.10;99.90
5842;DHT22;2947;52.276;9.946;2023-04-25T16:05:56;9.50;99.90
5842;DHT22;2947;52.276;9.946;2023-04-25T16:08:22;9.40;99.90
5842;DHT22;2947;52.276;9.946;2023-04-25T16:10:48;9.30;99.90
5842;DHT22;2947;52.276;9.946;2023-04-25T16:13:15;9.40;99.90
5842;DHT22;2947;52.276;9.946;2023-04-25T16:15:41;9.40;99.90
5842;DHT22;2947;52.276;9.946;2023-04-25T16:18:06;9.50;99.90
5842;DHT22;2947;52.276;9.946;2023-04-25T16:20:32;9.50;99.90
5842;DHT22;2947;52.276;9.946;2023-04-25T16:22:58;9.50;99.90
5842;DHT22;2947;52.276;9.946;2023-04-25T16:25:24;9.50;99.90
5842;DHT22;2947;52.276;9.946;2023-04-25T16:27:50;9.40;99.90